Terminal Aerodrome Forecast
Issued by NWS Memphis, TN

Home | Current Version | Previous Version | Text Only | Print | Product List | Glossary On
Versions: 1 2 3 4 5 6 7 8 9 10 11 12 13 14 15 16 17 18 19 20
000
FTUS44 KMEG 190520
TAFMKL
TAF
KMKL 190520Z 1906/2006 00000KT P6SM OVC040
     FM190800 03003KT 5SM BR OVC015
     FM191400 06005KT P6SM OVC025
     FM200000 03003KT P6SM VCSH OVC050=

USA.gov is the U.S. government's official web portal to all federal, state and local government web resources and services.